sensor_id;sensor_type;location;lat;lon;timestamp;P1;durP1;ratioP1;P2;durP2;ratioP2
10009;SDS011;5044;48.652;9.250;2022-11-20T00:01:21;2.30;;;1.27;;
10009;SDS011;5044;48.652;9.250;2022-11-20T00:03:51;2.03;;;1.50;;
10009;SDS011;5044;48.652;9.250;2022-11-20T00:06:20;1.58;;;1.25;;
10009;SDS011;5044;48.652;9.250;2022-11-20T00:08:48;1.65;;;1.23;;
10009;SDS011;5044;48.652;9.250;2022-11-20T00:11:17;2.40;;;1.35;;
10009;SDS011;5044;48.652;9.250;2022-11-20T00:13:45;2.85;;;1.42;;
10009;SDS011;5044;48.652;9.250;2022-11-20T00:16:14;3.03;;;1.20;;
10009;SDS011;5044;48.652;9.250;2022-11-20T00:18:42;6.32;;;1.95;;
10009;SDS011;5044;48.652;9.250;2022-11-20T00:21:10;4.32;;;1.67;;
10009;SDS011;5044;48.652;9.250;2022-11-20T00:23:39;2.00;;;1.13;;
10009;SDS011;5044;48.652;9.250;2022-11-20T00:26:08;2.70;;;1.45;;
10009;SDS011;5044;48.652;9.250;2022-11-20T00:28:38;1.95;;;1.23;;
10009;SDS011;5044;48.652;9.250;2022-11-20T00:31:05;2.95;;;1.42;;
10009;SDS011;5044;48.652;9.250;2022-11-20T00:33:34;1.83;;;1.10;;
10009;SDS011;5044;48.652;9.250;2022-11-20T00:36:01;3.13;;;1.38;;
10009;SDS011;5044;48.652;9.250;2022-11-20T00:38:30;2.20;;;1.30;;
10009;SDS011;5044;48.652;9.250;2022-11-20T00:40:59;2.30;;;1.10;;
10009;SDS011;5044;48.652;9.250;2022-11-20T00:43:27;1.67;;;1.40;;
10009;SDS011;5044;48.652;9.250;2022-11-20T00:45:58;2.42;;;0.90;;
10009;SDS011;5044;48.652;9.250;2022-11-20T00:48:25;2.65;;;1.00;;
10009;SDS011;5044;48.652;9.250;2022-11-20T00:50:53;1.90;;;1.30;;
10009;SDS011;5044;48.652;9.250;2022-11-20T00:53:21;1.88;;;1.13;;
10009;SDS011;5044;48.652;9.250;2022-11-20T00:55:54;2.47;;;0.98;;
10009;SDS011;5044;48.652;9.250;2022-11-20T00:58:28;3.13;;;1.30;;
10009;SDS011;5044;48.652;9.250;2022-11-20T01:00:59;2.35;;;1.42;;
10009;SDS011;5044;48.652;9.250;2022-11-20T01:03:30;1.65;;;1.30;;
10009;SDS011;5044;48.652;9.250;2022-11-20T01:05:59;4.47;;;1.30;;
10009;SDS011;5044;48.652;9.250;2022-11-20T01:08:30;1.90;;;1.20;;
10009;SDS011;5044;48.652;9.250;2022-11-20T01:10:59;2.28;;;1.27;;
10009;SDS011;5044;48.652;9.250;2022-11-20T01:13:31;1.85;;;1.13;;
10009;SDS011;5044;48.652;9.250;2022-11-20T01:16:04;2.25;;;1.15;;
10009;SDS011;5044;48.652;9.250;2022-11-20T01:18:32;2.08;;;1.27;;
10009;SDS011;5044;48.652;9.250;2022-11-20T01:21:02;1.70;;;1.10;;
10009;SDS011;5044;48.652;9.250;2022-11-20T01:23:30;2.63;;;1.10;;
10009;SDS011;5044;48.652;9.250;2022-11-20T01:26:12;2.92;;;1.17;;
10009;SDS011;5044;48.652;9.250;2022-11-20T01:28:42;1.85;;;1.40;;
10009;SDS011;5044;48.652;9.250;2022-11-20T01:31:13;1.45;;;1.27;;
10009;SDS011;5044;48.652;9.250;2022-11-20T01:33:41;2.40;;;1.85;;
10009;SDS011;5044;48.652;9.250;2022-11-20T01:36:10;1.60;;;0.93;;
10009;SDS011;5044;48.652;9.250;2022-11-20T01:38:37;1.55;;;1.13;;
10009;SDS011;5044;48.652;9.250;2022-11-20T01:41:05;2.65;;;1.30;;
10009;SDS011;5044;48.652;9.250;2022-11-20T01:43:33;2.75;;;1.50;;
10009;SDS011;5044;48.652;9.250;2022-11-20T01:46:08;3.38;;;2.33;;
10009;SDS011;5044;48.652;9.250;2022-11-20T01:48:42;2.35;;;1.98;;
10009;SDS011;5044;48.652;9.250;2022-11-20T01:51:17;2.90;;;1.73;;
10009;SDS011;5044;48.652;9.250;2022-11-20T01:53:48;2.83;;;1.63;;
10009;SDS011;5044;48.652;9.250;2022-11-20T01:58:47;5.10;;;1.60;;
10009;SDS011;5044;48.652;9.250;2022-11-20T02:01:18;4.95;;;1.70;;
10009;SDS011;5044;48.652;9.250;2022-11-20T02:03:45;2.05;;;1.67;;
10009;SDS011;5044;48.652;9.250;2022-11-20T02:06:14;4.30;;;1.65;;
10009;SDS011;5044;48.652;9.250;2022-11-20T02:08:45;4.63;;;1.30;;
10009;SDS011;5044;48.652;9.250;2022-11-20T02:11:12;2.00;;;1.45;;
10009;SDS011;5044;48.652;9.250;2022-11-20T02:13:39;3.45;;;1.40;;
10009;SDS011;5044;48.652;9.250;2022-11-20T02:16:09;3.90;;;1.73;;
10009;SDS011;5044;48.652;9.250;2022-11-20T02:18:40;1.85;;;1.50;;
10009;SDS011;5044;48.652;9.250;2022-11-20T02:21:34;5.03;;;2.33;;
10009;SDS011;5044;48.652;9.250;2022-11-20T02:24:29;3.15;;;2.08;;
10009;SDS011;5044;48.652;9.250;2022-11-20T02:27:04;7.72;;;1.58;;
10009;SDS011;5044;48.652;9.250;2022-11-20T02:30:11;4.25;;;1.70;;
10009;SDS011;5044;48.652;9.250;2022-11-20T02:38:50;3.80;;;2.13;;
10009;SDS011;5044;48.652;9.250;2022-11-20T02:41:22;2.25;;;1.52;;
10009;SDS011;5044;48.652;9.250;2022-11-20T02:43:57;2.88;;;1.48;;
10009;SDS011;5044;48.652;9.250;2022-11-20T02:46:26;2.47;;;1.55;;
10009;SDS011;5044;48.652;9.250;2022-11-20T02:48:53;2.30;;;1.42;;
10009;SDS011;5044;48.652;9.250;2022-11-20T02:51:20;2.10;;;1.67;;
10009;SDS011;5044;48.652;9.250;2022-11-20T02:53:48;3.35;;;1.92;;
10009;SDS011;5044;48.652;9.250;2022-11-20T02:56:14;5.40;;;1.95;;
10009;SDS011;5044;48.652;9.250;2022-11-20T02:58:43;4.35;;;1.58;;
10009;SDS011;5044;48.652;9.250;2022-11-20T03:01:10;3.28;;;1.52;;
10009;SDS011;5044;48.652;9.250;2022-11-20T03:03:42;5.50;;;2.10;;
10009;SDS011;5044;48.652;9.250;2022-11-20T03:06:10;2.55;;;2.05;;
10009;SDS011;5044;48.652;9.250;2022-11-20T03:08:37;4.07;;;1.88;;
10009;SDS011;5044;48.652;9.250;2022-11-20T03:11:06;3.88;;;1.92;;
10009;SDS011;5044;48.652;9.250;2022-11-20T03:13:33;2.67;;;1.80;;
10009;SDS011;5044;48.652;9.250;2022-11-20T03:16:07;2.40;;;1.70;;
10009;SDS011;5044;48.652;9.250;2022-11-20T03:18:36;2.78;;;1.65;;
10009;SDS011;5044;48.652;9.250;2022-11-20T03:21:10;2.17;;;1.50;;
10009;SDS011;5044;48.652;9.250;2022-11-20T03:23:39;4.07;;;1.80;;
10009;SDS011;5044;48.652;9.250;2022-11-20T03:26:11;2.58;;;1.50;;
10009;SDS011;5044;48.652;9.250;2022-11-20T03:28:46;5.22;;;2.60;;
10009;SDS011;5044;48.652;9.250;2022-11-20T03:31:15;2.70;;;1.50;;
10009;SDS011;5044;48.652;9.250;2022-11-20T03:33:44;2.15;;;1.42;;
10009;SDS011;5044;48.652;9.250;2022-11-20T03:36:12;2.80;;;1.80;;
10009;SDS011;5044;48.652;9.250;2022-11-20T03:38:40;5.88;;;1.73;;
10009;SDS011;5044;48.652;9.250;2022-11-20T03:41:08;2.20;;;1.40;;
10009;SDS011;5044;48.652;9.250;2022-11-20T03:43:36;3.13;;;1.88;;
10009;SDS011;5044;48.652;9.250;2022-11-20T03:46:06;1.52;;;1.35;;
10009;SDS011;5044;48.652;9.250;2022-11-20T03:48:37;1.92;;;1.13;;
10009;SDS011;5044;48.652;9.250;2022-11-20T03:51:10;2.63;;;1.50;;
10009;SDS011;5044;48.652;9.250;2022-11-20T03:53:38;2.13;;;1.38;;
10009;SDS011;5044;48.652;9.250;2022-11-20T03:56:06;1.75;;;1.20;;
10009;SDS011;5044;48.652;9.250;2022-11-20T03:58:47;1.95;;;1.40;;
10009;SDS011;5044;48.652;9.250;2022-11-20T04:01:35;4.63;;;1.50;;
10009;SDS011;5044;48.652;9.250;2022-11-20T04:17:17;1.67;;;1.17;;
10009;SDS011;5044;48.652;9.250;2022-11-20T04:19:44;3.50;;;1.33;;
10009;SDS011;5044;48.652;9.250;2022-11-20T04:22:11;2.55;;;1.27;;
10009;SDS011;5044;48.652;9.250;2022-11-20T04:24:38;1.67;;;1.08;;
10009;SDS011;5044;48.652;9.250;2022-11-20T04:27:05;3.10;;;1.10;;
10009;SDS011;5044;48.652;9.250;2022-11-20T04:29:31;1.20;;;0.90;;
10009;SDS011;5044;48.652;9.250;2022-11-20T04:31:59;1.75;;;1.27;;
10009;SDS011;5044;48.652;9.250;2022-11-20T04:34:27;5.47;;;1.65;;
10009;SDS011;5044;48.652;9.250;2022-11-20T04:36:54;2.97;;;1.38;;
10009;SDS011;5044;48.652;9.250;2022-11-20T04:39:23;5.18;;;1.70;;
10009;SDS011;5044;48.652;9.250;2022-11-20T04:41:50;3.90;;;1.30;;
10009;SDS011;5044;48.652;9.250;2022-11-20T04:44:37;1.92;;;1.40;;
10009;SDS011;5044;48.652;9.250;2022-11-20T04:47:04;2.45;;;1.30;;
10009;SDS011;5044;48.652;9.250;2022-11-20T04:49:32;1.83;;;1.20;;
10009;SDS011;5044;48.652;9.250;2022-11-20T04:52:03;3.25;;;1.55;;
10009;SDS011;5044;48.652;9.250;2022-11-20T04:54:33;2.28;;;0.98;;
10009;SDS011;5044;48.652;9.250;2022-11-20T04:57:01;1.23;;;1.08;;
10009;SDS011;5044;48.652;9.250;2022-11-20T04:59:28;3.55;;;1.90;;
10009;SDS011;5044;48.652;9.250;2022-11-20T05:01:56;3.03;;;1.52;;
10009;SDS011;5044;48.652;9.250;2022-11-20T05:04:24;2.33;;;1.38;;
10009;SDS011;5044;48.652;9.250;2022-11-20T05:06:52;1.73;;;1.10;;
10009;SDS011;5044;48.652;9.250;2022-11-20T05:09:20;2.55;;;1.25;;
10009;SDS011;5044;48.652;9.250;2022-11-20T05:11:46;1.30;;;1.13;;
10009;SDS011;5044;48.652;9.250;2022-11-20T05:17:41;1.80;;;1.23;;
10009;SDS011;5044;48.652;9.250;2022-11-20T05:20:12;3.13;;;1.55;;
10009;SDS011;5044;48.652;9.250;2022-11-20T05:22:41;3.33;;;1.08;;
10009;SDS011;5044;48.652;9.250;2022-11-20T05:25:08;2.75;;;1.33;;
10009;SDS011;5044;48.652;9.250;2022-11-20T05:27:49;2.88;;;1.05;;
10009;SDS011;5044;48.652;9.250;2022-11-20T05:30:19;3.65;;;1.35;;
10009;SDS011;5044;48.652;9.250;2022-11-20T05:32:48;1.88;;;0.95;;
10009;SDS011;5044;48.652;9.250;2022-11-20T05:35:15;1.40;;;1.20;;
10009;SDS011;5044;48.652;9.250;2022-11-20T05:37:45;3.33;;;1.00;;
10009;SDS011;5044;48.652;9.250;2022-11-20T05:42:40;1.75;;;1.20;;
10009;SDS011;5044;48.652;9.250;2022-11-20T05:45:09;2.63;;;1.42;;
10009;SDS011;5044;48.652;9.250;2022-11-20T05:47:36;1.50;;;0.93;;
10009;SDS011;5044;48.652;9.250;2022-11-20T05:50:03;1.38;;;0.90;;
10009;SDS011;5044;48.652;9.250;2022-11-20T05:52:30;4.38;;;1.13;;
10009;SDS011;5044;48.652;9.250;2022-11-20T05:54:58;2.53;;;1.23;;
10009;SDS011;5044;48.652;9.250;2022-11-20T05:57:26;4.32;;;1.20;;
10009;SDS011;5044;48.652;9.250;2022-11-20T05:59:56;1.50;;;1.08;;
10009;SDS011;5044;48.652;9.250;2022-11-20T06:02:25;2.35;;;1.25;;
10009;SDS011;5044;48.652;9.250;2022-11-20T06:04:51;1.77;;;1.20;;
10009;SDS011;5044;48.652;9.250;2022-11-20T06:07:25;2.15;;;1.08;;
10009;SDS011;5044;48.652;9.250;2022-11-20T06:09:51;0.77;;;0.70;;
10009;SDS011;5044;48.652;9.250;2022-11-20T06:12:26;2.35;;;1.33;;
10009;SDS011;5044;48.652;9.250;2022-11-20T06:14:54;2.72;;;1.05;;
10009;SDS011;5044;48.652;9.250;2022-11-20T06:17:31;1.73;;;1.23;;
10009;SDS011;5044;48.652;9.250;2022-11-20T06:19:58;2.70;;;1.15;;
10009;SDS011;5044;48.652;9.250;2022-11-20T06:22:25;1.85;;;1.30;;
10009;SDS011;5044;48.652;9.250;2022-11-20T06:25:00;2.22;;;1.00;;
10009;SDS011;5044;48.652;9.250;2022-11-20T06:27:29;2.42;;;2.22;;
10009;SDS011;5044;48.652;9.250;2022-11-20T06:29:56;1.10;;;1.00;;
10009;SDS011;5044;48.652;9.250;2022-11-20T06:32:23;2.63;;;1.10;;
10009;SDS011;5044;48.652;9.250;2022-11-20T06:34:50;1.98;;;1.25;;
10009;SDS011;5044;48.652;9.250;2022-11-20T06:37:16;1.83;;;1.23;;
10009;SDS011;5044;48.652;9.250;2022-11-20T06:39:44;1.67;;;1.20;;
10009;SDS011;5044;48.652;9.250;2022-11-20T06:42:11;3.00;;;0.93;;
10009;SDS011;5044;48.652;9.250;2022-11-20T06:44:39;1.45;;;0.90;;
10009;SDS011;5044;48.652;9.250;2022-11-20T06:47:06;2.63;;;0.90;;
10009;SDS011;5044;48.652;9.250;2022-11-20T06:49:33;1.42;;;1.00;;
10009;SDS011;5044;48.652;9.250;2022-11-20T06:52:03;2.05;;;1.17;;
10009;SDS011;5044;48.652;9.250;2022-11-20T06:54:30;2.33;;;1.10;;
10009;SDS011;5044;48.652;9.250;2022-11-20T06:56:59;2.20;;;1.17;;
10009;SDS011;5044;48.652;9.250;2022-11-20T06:59:26;1.65;;;1.35;;
10009;SDS011;5044;48.652;9.250;2022-11-20T07:01:54;2.60;;;1.50;;
10009;SDS011;5044;48.652;9.250;2022-11-20T07:04:20;1.55;;;1.00;;
10009;SDS011;5044;48.652;9.250;2022-11-20T07:06:48;2.03;;;0.98;;
10009;SDS011;5044;48.652;9.250;2022-11-20T07:09:15;1.02;;;0.75;;
10009;SDS011;5044;48.652;9.250;2022-11-20T07:11:41;2.10;;;1.00;;
10009;SDS011;5044;48.652;9.250;2022-11-20T07:14:12;1.48;;;0.90;;
10009;SDS011;5044;48.652;9.250;2022-11-20T07:16:39;4.22;;;1.55;;
10009;SDS011;5044;48.652;9.250;2022-11-20T07:19:07;8.65;;;1.15;;
10009;SDS011;5044;48.652;9.250;2022-11-20T07:21:34;2.13;;;1.10;;
10009;SDS011;5044;48.652;9.250;2022-11-20T07:24:05;2.17;;;0.90;;
10009;SDS011;5044;48.652;9.250;2022-11-20T07:26:32;2.70;;;1.05;;
10009;SDS011;5044;48.652;9.250;2022-11-20T07:28:59;1.42;;;0.90;;
10009;SDS011;5044;48.652;9.250;2022-11-20T07:31:32;1.88;;;0.95;;
10009;SDS011;5044;48.652;9.250;2022-11-20T07:33:59;3.17;;;1.05;;
10009;SDS011;5044;48.652;9.250;2022-11-20T07:36:27;0.98;;;0.80;;
10009;SDS011;5044;48.652;9.250;2022-11-20T07:38:55;3.38;;;1.23;;
10009;SDS011;5044;48.652;9.250;2022-11-20T07:41:22;5.22;;;1.30;;
10009;SDS011;5044;48.652;9.250;2022-11-20T07:43:52;2.15;;;0.90;;
10009;SDS011;5044;48.652;9.250;2022-11-20T07:46:19;2.40;;;1.33;;
10009;SDS011;5044;48.652;9.250;2022-11-20T07:48:47;2.33;;;1.20;;
10009;SDS011;5044;48.652;9.250;2022-11-20T07:51:14;1.95;;;1.05;;
10009;SDS011;5044;48.652;9.250;2022-11-20T07:53:42;1.30;;;0.90;;
10009;SDS011;5044;48.652;9.250;2022-11-20T07:56:09;4.28;;;0.98;;
10009;SDS011;5044;48.652;9.250;2022-11-20T07:58:36;5.90;;;1.17;;
10009;SDS011;5044;48.652;9.250;2022-11-20T08:01:04;1.70;;;1.13;;
10009;SDS011;5044;48.652;9.250;2022-11-20T08:03:31;1.13;;;0.70;;
10009;SDS011;5044;48.652;9.250;2022-11-20T08:06:02;1.08;;;0.82;;
10009;SDS011;5044;48.652;9.250;2022-11-20T08:08:30;1.10;;;0.73;;
10009;SDS011;5044;48.652;9.250;2022-11-20T08:10:59;2.60;;;1.25;;
10009;SDS011;5044;48.652;9.250;2022-11-20T08:13:39;2.10;;;0.90;;
10009;SDS011;5044;48.652;9.250;2022-11-20T08:16:24;2.13;;;1.38;;
10009;SDS011;5044;48.652;9.250;2022-11-20T08:18:56;2.78;;;1.00;;
10009;SDS011;5044;48.652;9.250;2022-11-20T08:21:23;1.50;;;1.00;;
10009;SDS011;5044;48.652;9.250;2022-11-20T08:23:50;2.17;;;1.25;;
10009;SDS011;5044;48.652;9.250;2022-11-20T08:26:20;3.90;;;2.22;;
10009;SDS011;5044;48.652;9.250;2022-11-20T08:28:47;1.23;;;0.80;;
10009;SDS011;5044;48.652;9.250;2022-11-20T08:31:14;1.52;;;0.80;;
10009;SDS011;5044;48.652;9.250;2022-11-20T08:33:40;1.83;;;0.90;;
10009;SDS011;5044;48.652;9.250;2022-11-20T08:36:09;3.28;;;0.85;;
10009;SDS011;5044;48.652;9.250;2022-11-20T08:38:36;3.03;;;1.88;;
10009;SDS011;5044;48.652;9.250;2022-11-20T08:41:07;3.05;;;1.70;;
10009;SDS011;5044;48.652;9.250;2022-11-20T08:43:54;2.85;;;1.30;;
10009;SDS011;5044;48.652;9.250;2022-11-20T09:07:07;2.47;;;1.20;;
10009;SDS011;5044;48.652;9.250;2022-11-20T09:09:37;1.92;;;1.23;;
10009;SDS011;5044;48.652;9.250;2022-11-20T09:12:04;1.50;;;0.98;;
10009;SDS011;5044;48.652;9.250;2022-11-20T09:14:31;1.10;;;1.00;;
10009;SDS011;5044;48.652;9.250;2022-11-20T09:20:57;2.60;;;1.52;;
10009;SDS011;5044;48.652;9.250;2022-11-20T09:30:42;3.80;;;0.90;;
10009;SDS011;5044;48.652;9.250;2022-11-20T11:39:51;1.00;;;0.70;;
10009;SDS011;5044;48.652;9.250;2022-11-20T11:42:19;1.98;;;1.00;;
10009;SDS011;5044;48.652;9.250;2022-11-20T11:45:11;1.98;;;0.80;;
10009;SDS011;5044;48.652;9.250;2022-11-20T11:47:46;3.15;;;1.35;;
10009;SDS011;5044;48.652;9.250;2022-11-20T11:50:20;3.63;;;1.00;;
10009;SDS011;5044;48.652;9.250;2022-11-20T11:53:07;1.05;;;0.70;;
10009;SDS011;5044;48.652;9.250;2022-11-20T11:56:03;1.83;;;1.05;;
10009;SDS011;5044;48.652;9.250;2022-11-20T11:58:48;1.98;;;1.42;;
10009;SDS011;5044;48.652;9.250;2022-11-20T12:01:38;6.28;;;1.85;;
10009;SDS011;5044;48.652;9.250;2022-11-20T12:04:30;2.95;;;1.58;;
10009;SDS011;5044;48.652;9.250;2022-11-20T12:07:43;1.17;;;0.80;;
10009;SDS011;5044;48.652;9.250;2022-11-20T12:10:50;1.85;;;1.00;;
10009;SDS011;5044;48.652;9.250;2022-11-20T12:16:35;3.03;;;1.45;;
10009;SDS011;5044;48.652;9.250;2022-11-20T12:19:38;2.70;;;1.40;;
10009;SDS011;5044;48.652;9.250;2022-11-20T12:22:12;0.52;;;0.50;;
10009;SDS011;5044;48.652;9.250;2022-11-20T12:25:03;2.67;;;0.93;;
10009;SDS011;5044;48.652;9.250;2022-11-20T12:27:56;4.15;;;1.42;;
10009;SDS011;5044;48.652;9.250;2022-11-20T12:33:55;2.05;;;0.93;;
10009;SDS011;5044;48.652;9.250;2022-11-20T12:36:56;3.20;;;1.00;;
10009;SDS011;5044;48.652;9.250;2022-11-20T12:39:34;3.13;;;1.05;;
10009;SDS011;5044;48.652;9.250;2022-11-20T12:45:18;2.05;;;0.70;;
10009;SDS011;5044;48.652;9.250;2022-11-20T12:52:03;1.95;;;0.90;;
10009;SDS011;5044;48.652;9.250;2022-11-20T12:54:46;1.98;;;0.70;;
10009;SDS011;5044;48.652;9.250;2022-11-20T12:57:24;2.38;;;0.80;;
10009;SDS011;5044;48.652;9.250;2022-11-20T13:00:03;1.35;;;0.80;;
10009;SDS011;5044;48.652;9.250;2022-11-20T13:03:08;0.95;;;0.60;;
10009;SDS011;5044;48.652;9.250;2022-11-20T13:06:05;1.45;;;0.40;;
10009;SDS011;5044;48.652;9.250;2022-11-20T13:08:40;1.88;;;1.20;;
10009;SDS011;5044;48.652;9.250;2022-11-20T13:11:31;2.58;;;0.43;;
10009;SDS011;5044;48.652;9.250;2022-11-20T13:14:28;4.15;;;0.93;;
10009;SDS011;5044;48.652;9.250;2022-11-20T13:17:04;1.38;;;0.98;;
10009;SDS011;5044;48.652;9.250;2022-11-20T13:19:41;3.00;;;2.30;;
10009;SDS011;5044;48.652;9.250;2022-11-20T13:22:25;2.40;;;0.75;;
10009;SDS011;5044;48.652;9.250;2022-11-20T13:24:53;2.33;;;0.65;;
10009;SDS011;5044;48.652;9.250;2022-11-20T13:27:23;0.98;;;0.60;;
10009;SDS011;5044;48.652;9.250;2022-11-20T13:29:59;2.03;;;0.50;;
10009;SDS011;5044;48.652;9.250;2022-11-20T13:32:47;1.35;;;0.80;;
10009;SDS011;5044;48.652;9.250;2022-11-20T13:35:23;2.05;;;0.93;;
10009;SDS011;5044;48.652;9.250;2022-11-20T13:38:03;0.98;;;0.68;;
10009;SDS011;5044;48.652;9.250;2022-11-20T13:40:38;1.60;;;0.47;;
10009;SDS011;5044;48.652;9.250;2022-11-20T13:43:21;1.85;;;0.60;;
10009;SDS011;5044;48.652;9.250;2022-11-20T13:45:57;1.55;;;0.60;;
10009;SDS011;5044;48.652;9.250;2022-11-20T13:48:30;1.13;;;0.57;;
10009;SDS011;5044;48.652;9.250;2022-11-20T13:51:04;2.83;;;0.70;;
10009;SDS011;5044;48.652;9.250;2022-11-20T13:53:52;3.75;;;0.85;;
10009;SDS011;5044;48.652;9.250;2022-11-20T13:56:34;1.33;;;0.60;;
10009;SDS011;5044;48.652;9.250;2022-11-20T14:01:46;1.92;;;0.63;;
10009;SDS011;5044;48.652;9.250;2022-11-20T14:04:15;1.13;;;0.50;;
10009;SDS011;5044;48.652;9.250;2022-11-20T14:06:46;2.75;;;0.77;;
10009;SDS011;5044;48.652;9.250;2022-11-20T14:09:25;1.08;;;0.70;;
10009;SDS011;5044;48.652;9.250;2022-11-20T14:11:54;2.50;;;0.80;;
10009;SDS011;5044;48.652;9.250;2022-11-20T14:14:22;1.80;;;0.82;;
10009;SDS011;5044;48.652;9.250;2022-11-20T14:16:50;1.92;;;0.60;;
10009;SDS011;5044;48.652;9.250;2022-11-20T14:19:25;1.98;;;1.33;;
10009;SDS011;5044;48.652;9.250;2022-11-20T14:22:06;1.55;;;0.73;;
10009;SDS011;5044;48.652;9.250;2022-11-20T14:24:36;0.80;;;0.60;;
10009;SDS011;5044;48.652;9.250;2022-11-20T14:27:03;2.53;;;0.68;;
10009;SDS011;5044;48.652;9.250;2022-11-20T14:29:33;0.75;;;0.63;;
10009;SDS011;5044;48.652;9.250;2022-11-20T14:32:04;2.72;;;1.17;;
10009;SDS011;5044;48.652;9.250;2022-11-20T14:34:35;4.80;;;1.08;;
10009;SDS011;5044;48.652;9.250;2022-11-20T14:37:17;2.03;;;0.77;;
10009;SDS011;5044;48.652;9.250;2022-11-20T14:39:52;2.08;;;1.00;;
10009;SDS011;5044;48.652;9.250;2022-11-20T14:42:20;0.95;;;0.73;;
10009;SDS011;5044;48.652;9.250;2022-11-20T14:44:52;1.10;;;0.77;;
10009;SDS011;5044;48.652;9.250;2022-11-20T14:47:23;3.28;;;1.75;;
10009;SDS011;5044;48.652;9.250;2022-11-20T14:49:52;2.00;;;1.15;;
10009;SDS011;5044;48.652;9.250;2022-11-20T14:52:22;1.98;;;1.20;;
10009;SDS011;5044;48.652;9.250;2022-11-20T14:54:52;5.93;;;2.45;;
10009;SDS011;5044;48.652;9.250;2022-11-20T15:00:52;4.85;;;2.58;;
10009;SDS011;5044;48.652;9.250;2022-11-20T15:03:21;4.47;;;1.80;;
10009;SDS011;5044;48.652;9.250;2022-11-20T15:05:49;3.85;;;1.50;;
10009;SDS011;5044;48.652;9.250;2022-11-20T15:08:18;4.43;;;2.08;;
10009;SDS011;5044;48.652;9.250;2022-11-20T15:10:48;4.22;;;1.13;;
10009;SDS011;5044;48.652;9.250;2022-11-20T15:13:39;3.13;;;1.55;;
10009;SDS011;5044;48.652;9.250;2022-11-20T15:16:08;4.90;;;1.40;;
10009;SDS011;5044;48.652;9.250;2022-11-20T15:18:47;1.35;;;0.80;;
10009;SDS011;5044;48.652;9.250;2022-11-20T15:21:18;1.95;;;1.05;;
10009;SDS011;5044;48.652;9.250;2022-11-20T15:23:46;1.90;;;1.35;;
10009;SDS011;5044;48.652;9.250;2022-11-20T15:28:54;1.70;;;1.20;;
10009;SDS011;5044;48.652;9.250;2022-11-20T15:31:23;43.72;;;20.38;;
10009;SDS011;5044;48.652;9.250;2022-11-20T15:33:50;44.33;;;18.35;;
10009;SDS011;5044;48.652;9.250;2022-11-20T15:36:17;9.95;;;5.53;;
10009;SDS011;5044;48.652;9.250;2022-11-20T15:38:44;4.15;;;1.95;;
10009;SDS011;5044;48.652;9.250;2022-11-20T15:41:11;3.60;;;1.48;;
10009;SDS011;5044;48.652;9.250;2022-11-20T15:43:39;4.40;;;2.30;;
10009;SDS011;5044;48.652;9.250;2022-11-20T15:46:09;2.85;;;1.73;;
10009;SDS011;5044;48.652;9.250;2022-11-20T15:48:42;3.72;;;1.55;;
10009;SDS011;5044;48.652;9.250;2022-11-20T15:51:17;7.85;;;3.22;;
10009;SDS011;5044;48.652;9.250;2022-11-20T15:53:50;4.57;;;2.92;;
10009;SDS011;5044;48.652;9.250;2022-11-20T15:56:17;3.53;;;2.15;;
10009;SDS011;5044;48.652;9.250;2022-11-20T15:58:48;5.13;;;3.55;;
10009;SDS011;5044;48.652;9.250;2022-11-20T16:01:15;3.97;;;2.22;;
10009;SDS011;5044;48.652;9.250;2022-11-20T16:03:44;2.15;;;1.48;;
10009;SDS011;5044;48.652;9.250;2022-11-20T16:06:11;1.88;;;1.20;;
10009;SDS011;5044;48.652;9.250;2022-11-20T16:08:39;1.83;;;1.23;;
10009;SDS011;5044;48.652;9.250;2022-11-20T16:11:09;2.72;;;1.30;;
10009;SDS011;5044;48.652;9.250;2022-11-20T16:13:38;8.88;;;3.22;;
10009;SDS011;5044;48.652;9.250;2022-11-20T16:16:26;3.95;;;2.50;;
10009;SDS011;5044;48.652;9.250;2022-11-20T16:18:55;3.45;;;1.70;;
10009;SDS011;5044;48.652;9.250;2022-11-20T16:21:25;6.55;;;4.20;;
10009;SDS011;5044;48.652;9.250;2022-11-20T16:23:56;8.63;;;3.40;;
10009;SDS011;5044;48.652;9.250;2022-11-20T16:26:23;3.25;;;2.95;;
10009;SDS011;5044;48.652;9.250;2022-11-20T16:28:50;2.80;;;1.95;;
10009;SDS011;5044;48.652;9.250;2022-11-20T16:34:22;6.55;;;3.13;;
10009;SDS011;5044;48.652;9.250;2022-11-20T16:36:49;6.25;;;1.95;;
10009;SDS011;5044;48.652;9.250;2022-11-20T16:46:38;4.30;;;3.08;;
10009;SDS011;5044;48.652;9.250;2022-11-20T16:49:10;5.30;;;2.90;;
10009;SDS011;5044;48.652;9.250;2022-11-20T16:51:38;5.35;;;2.63;;
10009;SDS011;5044;48.652;9.250;2022-11-20T16:54:06;5.03;;;2.67;;
10009;SDS011;5044;48.652;9.250;2022-11-20T16:59:52;7.47;;;3.72;;
10009;SDS011;5044;48.652;9.250;2022-11-20T17:02:19;6.78;;;3.55;;
10009;SDS011;5044;48.652;9.250;2022-11-20T17:04:48;6.13;;;2.88;;
10009;SDS011;5044;48.652;9.250;2022-11-20T17:07:26;8.48;;;3.30;;
10009;SDS011;5044;48.652;9.250;2022-11-20T17:09:53;5.70;;;2.47;;
10009;SDS011;5044;48.652;9.250;2022-11-20T17:12:20;4.68;;;2.40;;
10009;SDS011;5044;48.652;9.250;2022-11-20T17:14:47;3.95;;;1.73;;
10009;SDS011;5044;48.652;9.250;2022-11-20T17:17:14;6.50;;;2.30;;
10009;SDS011;5044;48.652;9.250;2022-11-20T17:19:54;5.85;;;1.77;;
10009;SDS011;5044;48.652;9.250;2022-11-20T17:22:23;4.05;;;2.10;;
10009;SDS011;5044;48.652;9.250;2022-11-20T17:27:47;8.80;;;3.53;;
10009;SDS011;5044;48.652;9.250;2022-11-20T17:30:26;4.05;;;2.58;;
10009;SDS011;5044;48.652;9.250;2022-11-20T17:33:15;7.57;;;2.05;;
10009;SDS011;5044;48.652;9.250;2022-11-20T17:35:56;9.43;;;4.70;;
10009;SDS011;5044;48.652;9.250;2022-11-20T17:38:25;7.15;;;2.15;;
10009;SDS011;5044;48.652;9.250;2022-11-20T17:41:02;6.57;;;2.33;;
10009;SDS011;5044;48.652;9.250;2022-11-20T17:46:55;7.22;;;2.80;;
10009;SDS011;5044;48.652;9.250;2022-11-20T17:50:35;6.53;;;2.88;;
10009;SDS011;5044;48.652;9.250;2022-11-20T17:53:04;6.47;;;3.70;;
10009;SDS011;5044;48.652;9.250;2022-11-20T17:55:47;10.27;;;4.05;;
10009;SDS011;5044;48.652;9.250;2022-11-20T18:25:17;4.25;;;2.58;;
10009;SDS011;5044;48.652;9.250;2022-11-20T18:34:17;3.40;;;2.10;;
10009;SDS011;5044;48.652;9.250;2022-11-20T18:36:44;5.15;;;2.70;;
10009;SDS011;5044;48.652;9.250;2022-11-20T18:39:11;7.68;;;2.97;;
10009;SDS011;5044;48.652;9.250;2022-11-20T18:41:39;7.22;;;1.83;;
10009;SDS011;5044;48.652;9.250;2022-11-20T18:44:25;4.53;;;2.08;;
10009;SDS011;5044;48.652;9.250;2022-11-20T18:47:12;5.13;;;2.17;;
10009;SDS011;5044;48.652;9.250;2022-11-20T18:49:41;4.03;;;1.80;;
10009;SDS011;5044;48.652;9.250;2022-11-20T18:52:10;3.47;;;1.83;;
10009;SDS011;5044;48.652;9.250;2022-11-20T18:54:37;5.43;;;1.33;;
10009;SDS011;5044;48.652;9.250;2022-11-20T18:57:04;4.53;;;1.52;;
10009;SDS011;5044;48.652;9.250;2022-11-20T18:59:34;2.22;;;1.13;;
10009;SDS011;5044;48.652;9.250;2022-11-20T19:02:01;2.75;;;1.25;;
10009;SDS011;5044;48.652;9.250;2022-11-20T19:04:29;1.30;;;0.80;;
10009;SDS011;5044;48.652;9.250;2022-11-20T19:06:57;1.70;;;1.00;;
10009;SDS011;5044;48.652;9.250;2022-11-20T19:09:24;3.28;;;1.00;;
10009;SDS011;5044;48.652;9.250;2022-11-20T19:11:54;1.00;;;0.65;;
10009;SDS011;5044;48.652;9.250;2022-11-20T19:14:21;1.75;;;1.20;;
10009;SDS011;5044;48.652;9.250;2022-11-20T19:16:48;1.15;;;0.80;;
10009;SDS011;5044;48.652;9.250;2022-11-20T19:19:18;1.73;;;0.80;;
10009;SDS011;5044;48.652;9.250;2022-11-20T19:21:47;1.42;;;0.60;;
10009;SDS011;5044;48.652;9.250;2022-11-20T19:24:16;2.17;;;0.65;;
10009;SDS011;5044;48.652;9.250;2022-11-20T19:26:43;6.85;;;1.58;;
10009;SDS011;5044;48.652;9.250;2022-11-20T19:29:11;2.05;;;0.95;;
10009;SDS011;5044;48.652;9.250;2022-11-20T19:31:49;3.05;;;1.20;;
10009;SDS011;5044;48.652;9.250;2022-11-20T19:34:16;4.47;;;1.35;;
10009;SDS011;5044;48.652;9.250;2022-11-20T19:36:43;1.92;;;1.13;;
10009;SDS011;5044;48.652;9.250;2022-11-20T19:39:12;2.03;;;0.85;;
10009;SDS011;5044;48.652;9.250;2022-11-20T19:41:41;0.67;;;0.63;;
10009;SDS011;5044;48.652;9.250;2022-11-20T19:44:11;1.52;;;0.82;;
10009;SDS011;5044;48.652;9.250;2022-11-20T19:46:39;1.92;;;0.80;;
10009;SDS011;5044;48.652;9.250;2022-11-20T19:49:08;0.95;;;0.50;;
10009;SDS011;5044;48.652;9.250;2022-11-20T19:51:38;1.45;;;0.77;;